createdAt,value
2022-12-06T00:01:56.474Z,1.90
2022-12-06T00:12:21.987Z,1.92
2022-12-06T00:22:48.335Z,1.94
2022-12-06T00:32:57.607Z,1.96
2022-12-06T00:43:13.231Z,1.98
2022-12-06T00:53:38.766Z,1.96
2022-12-06T01:04:06.887Z,1.93
2022-12-06T01:14:32.320Z,1.93
2022-12-06T01:24:57.911Z,1.95
2022-12-06T01:35:22.208Z,1.97
2022-12-06T01:45:47.691Z,1.98
2022-12-06T01:56:13.927Z,2.01
2022-12-06T02:06:40.653Z,2.01
2022-12-06T02:17:18.382Z,2.05
2022-12-06T02:28:05.769Z,2.07
2022-12-06T02:38:37.296Z,2.10
2022-12-06T02:49:06.063Z,2.13
2022-12-06T02:59:31.501Z,2.21
2022-12-06T03:10:10.832Z,2.22
2022-12-06T03:20:43.016Z,2.23
2022-12-06T03:31:15.271Z,2.27
2022-12-06T03:41:54.122Z,2.32
2022-12-06T03:52:19.819Z,2.33
2022-12-06T04:02:45.454Z,2.31
2022-12-06T04:13:15.442Z,2.34
2022-12-06T04:23:47.364Z,2.35
2022-12-06T04:34:31.087Z,2.36
2022-12-06T04:44:56.719Z,2.38
2022-12-06T04:55:22.293Z,2.35
2022-12-06T05:05:48.160Z,2.31
2022-12-06T05:16:14.431Z,2.29
2022-12-06T05:26:39.883Z,2.24
2022-12-06T05:37:06.220Z,2.22
2022-12-06T05:47:31.705Z,2.28
2022-12-06T05:57:57.371Z,2.33
2022-12-06T06:08:22.892Z,2.38
2022-12-06T06:18:48.449Z,2.40
2022-12-06T06:29:14.354Z,2.43
2022-12-06T06:39:39.859Z,2.46
2022-12-06T06:50:05.830Z,2.53
2022-12-06T07:00:31.497Z,2.57
2022-12-06T07:10:57.135Z,2.62
2022-12-06T07:21:23.401Z,2.65
2022-12-06T07:31:48.836Z,2.74
2022-12-06T07:42:31.748Z,2.77
2022-12-06T07:52:57.170Z,2.87
2022-12-06T08:03:22.689Z,2.97
2022-12-06T08:13:48.139Z,3.07
2022-12-06T08:24:13.673Z,3.04
2022-12-06T08:34:39.149Z,2.95
2022-12-06T08:45:04.892Z,2.89
2022-12-06T08:55:30.455Z,3.00
2022-12-06T09:05:56.021Z,3.12
2022-12-06T09:16:24.464Z,3.26
2022-12-06T09:26:50.529Z,3.27
2022-12-06T09:37:16.533Z,3.31
2022-12-06T09:47:57.648Z,3.39
2022-12-06T09:58:34.776Z,3.58
2022-12-06T10:09:13.209Z,3.64
2022-12-06T10:19:51.488Z,3.70
2022-12-06T10:30:18.385Z,3.71
2022-12-06T10:40:52.504Z,3.71
2022-12-06T10:51:23.259Z,3.83
2022-12-06T11:01:50.360Z,3.97
2022-12-06T11:12:30.771Z,4.12
2022-12-06T11:23:07.215Z,4.18
2022-12-06T11:33:35.127Z,4.23
2022-12-06T11:44:01.111Z,4.23
2022-12-06T11:54:30.768Z,4.22
2022-12-06T12:04:40.874Z,4.16
2022-12-06T12:14:52.075Z,4.11
2022-12-06T12:25:18.513Z,4.02
2022-12-06T12:35:29.118Z,3.97
2022-12-06T12:45:35.148Z,3.96
2022-12-06T12:55:41.932Z,4.00
2022-12-06T13:05:50.962Z,3.96
2022-12-06T13:15:59.571Z,3.89
2022-12-06T13:26:17.783Z,3.86
2022-12-06T13:36:24.995Z,3.80
2022-12-06T13:46:34.748Z,3.77
2022-12-06T13:56:41.965Z,3.69
2022-12-06T14:06:48.668Z,3.63
2022-12-06T14:16:57.280Z,3.58
2022-12-06T14:27:13.493Z,3.56
2022-12-06T14:37:24.471Z,3.51
2022-12-06T14:47:30.884Z,3.46
2022-12-06T14:57:39.701Z,3.41
2022-12-06T15:07:45.726Z,3.35
2022-12-06T15:17:51.374Z,3.34
2022-12-06T15:27:56.818Z,3.32
2022-12-06T15:38:02.279Z,3.29
2022-12-06T15:48:08.368Z,3.26
2022-12-06T15:58:13.923Z,3.27
2022-12-06T16:08:19.722Z,3.22
2022-12-06T16:18:25.505Z,3.17
2022-12-06T16:28:31.166Z,3.09
2022-12-06T16:38:36.761Z,3.08
2022-12-06T16:48:42.518Z,3.01
2022-12-06T16:58:48.317Z,2.95
2022-12-06T17:08:54.809Z,2.90
2022-12-06T17:19:00.494Z,2.87
2022-12-06T17:29:07.213Z,2.84
2022-12-06T17:39:15.128Z,2.74
2022-12-06T17:49:22.421Z,2.69
2022-12-06T17:59:27.426Z,2.70
2022-12-06T18:09:32.875Z,2.70
2022-12-06T18:19:40.307Z,2.70
2022-12-06T18:29:46.182Z,2.70
2022-12-06T18:39:51.866Z,2.67
2022-12-06T18:49:57.649Z,2.57
2022-12-06T19:00:03.875Z,2.54
2022-12-06T19:10:11.573Z,2.44
2022-12-06T19:20:17.636Z,2.30
2022-12-06T19:30:23.291Z,2.22
2022-12-06T19:40:28.947Z,2.14
2022-12-06T19:50:36.185Z,2.06
2022-12-06T20:00:40.640Z,1.88
2022-12-06T20:10:46.190Z,1.77
2022-12-06T20:20:54.516Z,1.72
2022-12-06T20:31:00.070Z,1.58
2022-12-06T20:41:10.056Z,1.39
2022-12-06T20:51:18.564Z,1.35
2022-12-06T21:01:27.184Z,1.28
2022-12-06T21:11:32.835Z,1.21
2022-12-06T21:21:41.424Z,1.17
2022-12-06T21:31:47.187Z,1.07
2022-12-06T21:41:53.227Z,0.95
2022-12-06T21:52:05.876Z,0.81
2022-12-06T22:02:15.022Z,0.66
2022-12-06T22:12:20.599Z,0.60
2022-12-06T22:22:26.185Z,0.55
2022-12-06T22:32:33.975Z,0.55
2022-12-06T22:42:40.148Z,0.51
2022-12-06T22:52:45.736Z,0.49
2022-12-06T23:02:51.737Z,0.44
2022-12-06T23:12:57.287Z,0.39
2022-12-06T23:23:02.794Z,0.39
2022-12-06T23:33:08.375Z,0.42
2022-12-06T23:43:14.006Z,0.40
2022-12-06T23:53:19.529Z,0.36
